This is the latest recevied weather packets stored in our database for station/object M3YFM-13. If no packets are shown the sender has not sent any weather packets the latest 1 day(s).
| Time | Temp. | Humidity | Pressure | Rain* | Wind** | Luminosity | Snow |
|---|---|---|---|---|---|---|---|
| 1778093417 | 12.78° C | 45% | - | 0 mm | - | - | - |
| 1778093116 | 12.78° C | 44% | - | 0 mm | - | - | - |
| 1778092215 | 12.78° C | 45% | - | 0 mm | - | - | - |
| 1778090113 | 13.33° C | 43% | - | 0 mm | - | - | - |
| 1778089212 | 13.33° C | 43% | - | 0 mm | - | - | - |
| 1778088311 | 13.33° C | 40% | - | 0 mm | - | - | - |
| 1778087410 | 13.33° C | 40% | - | 0 mm | - | - | - |
| 1778085909 | 14.44° C | 34% | - | 0 mm | - | - | - |
| 1778085008 | 15° C | 35% | - | 0 mm | - | - | - |
| 1778082606 | 15° C | 34% | - | 0 mm | - | - | - |
| 1778080504 | 14.44° C | 36% | - | 0 mm | - | - | - |
| 1778079303 | 15° C | 34% | - | 0 mm | - | - | - |
| 1778077501 | 16.11° C | 32% | - | 0 mm | - | - | - |
| 1778076600 | 15° C | 36% | - | 0 mm | - | - | - |
| 1778076300 | 15° C | 38% | - | 0 mm | - | - | - |
| 1778075399 | 14.44° C | 39% | - | 0 mm | - | - | - |
| 1778075099 | 15° C | 39% | - | 0 mm | - | - | - |
| 1778074498 | 14.44° C | 41% | - | 0 mm | - | - | - |
| 1778074198 | 13.89° C | 41% | - | 0 mm | - | - | - |
| 1778073297 | 14.44° C | 40% | - | 0 mm | - | - | - |
| 1778072096 | 14.44° C | 41% | - | 0 mm | - | - | - |
| 1778071195 | 14.44° C | 41% | - | 0 mm | - | - | - |
| 1778070294 | 13.89° C | 44% | - | 0 mm | - | - | - |
| 1778069994 | 13.89° C | 45% | - | 0 mm | - | - | - |
| 1778068191 | 13.89° C | 45% | - | 0 mm | - | - | - |
* Rain since midnight (hover to see other rain measurements)
** Current wind speed in m/s (hover to see current wind gust speed)